Time;durP1;ratioP1;P1;durP2;ratioP2;P2;SDS_P1;SDS_P2;PMS_P1;PMS_P2;Temp;Humidity;BMP_temperature;BMP_pressure;BME280_temperature;BME280_humidity;BME280_pressure;Samples;Min_cycle;Max_cycle;Signal;HPM_P1;HPM_P2
2022/01/24 00:01:06;;;;;;;1.50;1.10;;;;;;;;;;5058637;28;20199;-75
2022/01/24 00:03:33;;;;;;;1.37;0.87;;;;;;;;;;5059703;28;20226;-76
2022/01/24 00:06:02;;;;;;;2.23;1.20;;;;;;;;;;5057419;28;20286;-76
2022/01/24 00:08:31;;;;;;;2.90;1.50;;;;;;;;;;5056984;28;20234;-77
2022/01/24 00:11:06;;;;;;;2.00;1.10;;;;;;;;;;5059441;28;20202;-76
2022/01/24 00:16:22;;;;;;;3.23;1.37;;;;;;;;;;5054766;28;20207;-76
2022/01/24 00:27:05;;;;;;;2.23;1.50;;;;;;;;;;5058386;28;20209;-75
2022/01/24 00:29:32;;;;;;;3.93;1.50;;;;;;;;;;5057148;28;20218;-76
2022/01/24 00:31:59;;;;;;;2.67;1.50;;;;;;;;;;5058961;28;20742;-76
2022/01/24 00:34:27;;;;;;;2.27;1.37;;;;;;;;;;5056775;28;20360;-75
2022/01/24 00:36:54;;;;;;;3.37;1.60;;;;;;;;;;5054907;28;20286;-76
2022/01/24 00:39:22;;;;;;;3.30;1.70;;;;;;;;;;5057485;28;20298;-76
2022/01/24 00:42:00;;;;;;;2.17;1.43;;;;;;;;;;5056929;28;20257;-75
2022/01/24 00:47:16;;;;;;;5.70;1.63;;;;;;;;;;5056563;28;20210;-73
2022/01/24 00:49:53;;;;;;;3.27;1.60;;;;;;;;;;5056399;28;20281;-77
2022/01/24 00:55:06;;;;;;;2.17;1.53;;;;;;;;;;5055271;28;20202;-75
2022/01/24 00:57:34;;;;;;;3.77;1.40;;;;;;;;;;5053602;28;20210;-76
2022/01/24 01:00:02;;;;;;;2.70;1.57;;;;;;;;;;5055368;28;20214;-75
2022/01/24 01:02:29;;;;;;;2.53;1.70;;;;;;;;;;5054970;28;20221;-76
2022/01/24 01:05:17;;;;;;;2.93;1.80;;;;;;;;;;5057083;28;20669;-76
2022/01/24 01:07:55;;;;;;;2.17;1.60;;;;;;;;;;5056966;28;20305;-76
2022/01/24 01:18:39;;;;;;;3.13;1.60;;;;;;;;;;5057798;28;20218;-77
2022/01/24 01:21:10;;;;;;;3.33;1.90;;;;;;;;;;5055508;28;20262;-77
2022/01/24 01:23:39;;;;;;;2.57;1.67;;;;;;;;;;5054979;28;20510;-76
2022/01/24 01:26:11;;;;;;;2.60;1.60;;;;;;;;;;5057164;28;20294;-76
2022/01/24 01:28:42;;;;;;;2.77;1.70;;;;;;;;;;5056873;28;20199;-77
2022/01/24 01:31:20;;;;;;;2.30;1.47;;;;;;;;;;5055355;28;20206;-77
2022/01/24 01:33:57;;;;;;;2.20;1.50;;;;;;;;;;5056504;28;20844;-76
2022/01/24 01:36:39;;;;;;;2.43;1.70;;;;;;;;;;5058304;28;20234;-76
2022/01/24 01:53:17;;;;;;;1.57;1.03;;;;;;;;;;5056517;28;20276;-76
2022/01/24 01:55:44;;;;;;;1.27;0.90;;;;;;;;;;5057846;28;20206;-75
2022/01/24 01:58:12;;;;;;;1.50;1.03;;;;;;;;;;5055732;28;20221;-75
2022/01/24 02:00:40;;;;;;;1.63;1.10;;;;;;;;;;5056289;28;20202;-76
2022/01/24 02:03:09;;;;;;;1.07;0.97;;;;;;;;;;5053823;28;20761;-76
2022/01/24 02:05:37;;;;;;;2.97;1.10;;;;;;;;;;5057073;28;20211;-76
2022/01/24 02:08:04;;;;;;;3.53;1.33;;;;;;;;;;5055980;28;20207;-76
2022/01/24 02:10:33;;;;;;;1.23;0.97;;;;;;;;;;5057691;28;20239;-75
2022/01/24 02:13:00;;;;;;;1.43;1.03;;;;;;;;;;5054203;28;20219;-76
2022/01/24 02:15:37;;;;;;;2.07;1.20;;;;;;;;;;5055905;28;20290;-75
2022/01/24 02:18:11;;;;;;;3.27;1.30;;;;;;;;;;5055159;28;20210;-75
2022/01/24 02:21:06;;;;;;;1.67;1.10;;;;;;;;;;5056008;28;20562;-76
2022/01/24 02:23:41;;;;;;;2.57;1.20;;;;;;;;;;5054190;28;20238;-76
2022/01/24 02:26:11;;;;;;;1.67;1.17;;;;;;;;;;5056601;28;20225;-76
2022/01/24 02:28:53;;;;;;;1.30;1.00;;;;;;;;;;5053777;28;20591;-76
2022/01/24 02:34:04;;;;;;;2.50;1.30;;;;;;;;;;5053350;28;20606;-75
2022/01/24 02:36:32;;;;;;;2.20;1.40;;;;;;;;;;5057176;28;20238;-76
2022/01/24 02:39:12;;;;;;;1.57;1.20;;;;;;;;;;5056357;28;20288;-75
2022/01/24 02:50:02;;;;;;;3.00;1.73;;;;;;;;;;5043422;28;20206;-76
2022/01/24 02:52:30;;;;;;;1.70;1.37;;;;;;;;;;5059239;28;20208;-77
2022/01/24 02:54:58;;;;;;;3.03;1.73;;;;;;;;;;5061123;28;20672;-76
2022/01/24 02:57:25;;;;;;;2.80;1.80;;;;;;;;;;5059405;28;20259;-77
2022/01/24 02:59:52;;;;;;;4.13;1.60;;;;;;;;;;5057893;28;20297;-77
2022/01/24 03:02:20;;;;;;;2.73;1.60;;;;;;;;;;5058145;28;20230;-77
2022/01/24 03:04:47;;;;;;;2.33;1.60;;;;;;;;;;5058613;28;20297;-74
2022/01/24 03:07:14;;;;;;;1.53;1.20;;;;;;;;;;5059305;28;20202;-76
2022/01/24 03:09:43;;;;;;;2.17;1.37;;;;;;;;;;5058448;28;20202;-76
2022/01/24 03:12:14;;;;;;;2.93;1.63;;;;;;;;;;5057085;28;20203;-76
2022/01/24 03:14:41;;;;;;;1.60;1.40;;;;;;;;;;5059004;28;20314;-75
2022/01/24 03:17:08;;;;;;;2.47;1.57;;;;;;;;;;5060861;28;20199;-77
2022/01/24 03:19:36;;;;;;;2.20;1.60;;;;;;;;;;5059198;28;20309;-76
2022/01/24 03:22:03;;;;;;;2.20;1.63;;;;;;;;;;5059828;28;20361;-76
2022/01/24 03:24:30;;;;;;;2.50;1.50;;;;;;;;;;5058771;28;20228;-76
2022/01/24 03:26:58;;;;;;;2.20;1.50;;;;;;;;;;5058971;28;20217;-76
2022/01/24 03:29:26;;;;;;;2.27;1.60;;;;;;;;;;5062545;28;20263;-76
2022/01/24 03:31:53;;;;;;;2.47;1.87;;;;;;;;;;5060974;28;20221;-76
2022/01/24 03:34:20;;;;;;;2.13;1.43;;;;;;;;;;5063237;28;20309;-76
2022/01/24 03:36:48;;;;;;;2.50;1.60;;;;;;;;;;5059822;28;20296;-76
2022/01/24 03:39:15;;;;;;;2.77;1.70;;;;;;;;;;5057433;28;20203;-76
2022/01/24 03:41:42;;;;;;;2.37;1.67;;;;;;;;;;5056281;28;20205;-75
2022/01/24 03:44:12;;;;;;;2.10;1.47;;;;;;;;;;5059187;28;20309;-75
2022/01/24 03:47:12;;;;;;;2.40;1.60;;;;;;;;;;5059149;28;20616;-76
2022/01/24 03:49:49;;;;;;;2.93;1.87;;;;;;;;;;5058178;28;20203;-76
2022/01/24 03:52:16;;;;;;;3.07;1.73;;;;;;;;;;5055754;28;20214;-76
2022/01/24 03:54:44;;;;;;;2.50;1.53;;;;;;;;;;5057202;28;20611;-76
2022/01/24 03:57:12;;;;;;;2.53;1.90;;;;;;;;;;5059394;28;20213;-75
2022/01/24 03:59:39;;;;;;;2.87;1.83;;;;;;;;;;5057742;28;20218;-76
2022/01/24 04:02:08;;;;;;;2.27;1.80;;;;;;;;;;5058412;28;20217;-75
2022/01/24 04:04:35;;;;;;;3.50;2.20;;;;;;;;;;5056774;28;20349;-75
2022/01/24 04:07:03;;;;;;;3.23;1.97;;;;;;;;;;5057278;28;20206;-75
2022/01/24 04:09:30;;;;;;;2.90;2.10;;;;;;;;;;5059343;28;20293;-76
2022/01/24 04:11:59;;;;;;;4.00;2.43;;;;;;;;;;5061295;28;20321;-75
2022/01/24 04:14:34;;;;;;;3.90;2.03;;;;;;;;;;5060518;28;20222;-77
2022/01/24 04:17:19;;;;;;;3.10;2.17;;;;;;;;;;5060246;28;20559;-77
2022/01/24 04:22:36;;;;;;;3.40;2.30;;;;;;;;;;5059420;28;20237;-75
2022/01/24 04:25:05;;;;;;;4.10;2.40;;;;;;;;;;5055873;28;20206;-77
2022/01/24 04:27:33;;;;;;;5.33;2.20;;;;;;;;;;5058040;28;20206;-77
2022/01/24 04:30:00;;;;;;;3.50;2.33;;;;;;;;;;5057915;28;20299;-74
2022/01/24 04:32:27;;;;;;;3.73;2.40;;;;;;;;;;5058414;28;20282;-75
2022/01/24 04:34:55;;;;;;;4.20;2.60;;;;;;;;;;5055876;28;20204;-75
2022/01/24 04:37:23;;;;;;;3.50;2.53;;;;;;;;;;5056591;28;20227;-75
2022/01/24 04:39:50;;;;;;;4.47;2.50;;;;;;;;;;5057975;28;20222;-76
2022/01/24 04:42:26;;;;;;;2.90;2.13;;;;;;;;;;5057581;28;20293;-75
2022/01/24 04:45:10;;;;;;;3.80;2.40;;;;;;;;;;5060708;28;20293;-76
2022/01/24 04:50:19;;;;;;;3.87;2.50;;;;;;;;;;5058650;28;20294;-76
2022/01/24 04:50:42;;;;;;;4.43;2.23;;;;;;;;;;5057785;28;20244;-77
2022/01/24 04:53:16;;;;;;;2.57;1.93;;;;;;;;;;5058941;28;20275;-77
2022/01/24 04:55:43;;;;;;;3.10;2.23;;;;;;;;;;5054764;28;20652;-73
2022/01/24 04:58:10;;;;;;;3.70;2.50;;;;;;;;;;5059070;28;20199;-77
2022/01/24 05:00:37;;;;;;;3.50;2.40;;;;;;;;;;5057886;28;20666;-75
2022/01/24 05:03:04;;;;;;;3.27;2.23;;;;;;;;;;5054676;28;20318;-75
2022/01/24 05:05:33;;;;;;;3.70;2.20;;;;;;;;;;5058505;28;20199;-77
2022/01/24 05:08:04;;;;;;;3.30;2.10;;;;;;;;;;5057888;28;20704;-77
2022/01/24 05:10:37;;;;;;;2.87;2.00;;;;;;;;;;5060273;28;20297;-77
2022/01/24 05:21:36;;;;;;;3.03;2.00;;;;;;;;;;5055209;28;20243;-76
2022/01/24 05:24:02;;;;;;;3.83;2.40;;;;;;;;;;5058169;28;20320;-77
2022/01/24 05:26:29;;;;;;;2.57;1.93;;;;;;;;;;5057661;28;20234;-76
2022/01/24 05:28:56;;;;;;;3.50;1.97;;;;;;;;;;5051001;28;20644;-77
2022/01/24 05:31:23;;;;;;;2.60;1.77;;;;;;;;;;5054794;28;20205;-75
2022/01/24 05:33:50;;;;;;;2.77;1.90;;;;;;;;;;5060256;28;20222;-74
2022/01/24 05:36:19;;;;;;;2.53;1.90;;;;;;;;;;5055306;28;20218;-74
2022/01/24 05:38:46;;;;;;;11.80;2.97;;;;;;;;;;5057256;28;20202;-72
2022/01/24 05:41:13;;;;;;;2.47;1.80;;;;;;;;;;5058866;28;20198;-75
2022/01/24 05:43:41;;;;;;;3.80;1.90;;;;;;;;;;5051889;28;20254;-76
2022/01/24 05:46:08;;;;;;;3.23;1.80;;;;;;;;;;5055158;28;20313;-74
2022/01/24 05:48:35;;;;;;;3.10;2.07;;;;;;;;;;5056914;28;20564;-76
2022/01/24 05:51:03;;;;;;;3.40;1.80;;;;;;;;;;5052140;28;20207;-74
2022/01/24 05:53:31;;;;;;;2.53;1.63;;;;;;;;;;5052386;28;20218;-77
2022/01/24 05:55:59;;;;;;;3.27;1.97;;;;;;;;;;5054057;28;20205;-75
2022/01/24 05:58:26;;;;;;;1.93;1.40;;;;;;;;;;5051677;28;20211;-74
2022/01/24 06:00:53;;;;;;;3.70;1.83;;;;;;;;;;5053347;28;20983;-75
2022/01/24 06:03:21;;;;;;;2.53;1.63;;;;;;;;;;5051891;28;20315;-75
2022/01/24 06:05:48;;;;;;;2.87;1.80;;;;;;;;;;5053926;28;20251;-76
2022/01/24 06:08:15;;;;;;;2.93;1.80;;;;;;;;;;5051886;28;20289;-75
2022/01/24 06:10:45;;;;;;;3.20;2.10;;;;;;;;;;5052400;28;20628;-75
2022/01/24 06:13:12;;;;;;;2.53;1.70;;;;;;;;;;5051893;28;20353;-76
2022/01/24 06:15:39;;;;;;;2.80;1.50;;;;;;;;;;5055183;28;20220;-76
2022/01/24 06:18:06;;;;;;;2.83;1.87;;;;;;;;;;5053972;28;20205;-76
2022/01/24 06:20:33;;;;;;;2.20;1.50;;;;;;;;;;5055585;28;20225;-75
2022/01/24 06:23:01;;;;;;;2.30;1.60;;;;;;;;;;5055542;28;20240;-76
2022/01/24 06:25:29;;;;;;;2.47;1.70;;;;;;;;;;5056002;28;20293;-76
2022/01/24 06:27:57;;;;;;;3.40;1.83;;;;;;;;;;5054712;28;20218;-76
2022/01/24 06:30:25;;;;;;;2.33;1.63;;;;;;;;;;5057001;28;20197;-77
2022/01/24 06:32:52;;;;;;;2.67;1.60;;;;;;;;;;5059488;28;20322;-77
2022/01/24 06:35:19;;;;;;;2.17;1.47;;;;;;;;;;5056590;28;20306;-77
2022/01/24 06:37:46;;;;;;;2.97;1.70;;;;;;;;;;5057575;28;20290;-77
2022/01/24 06:40:13;;;;;;;2.23;1.60;;;;;;;;;;5060409;28;20217;-77
2022/01/24 06:42:41;;;;;;;2.20;1.67;;;;;;;;;;5058860;28;20249;-77
2022/01/24 06:45:10;;;;;;;2.80;1.70;;;;;;;;;;5053016;28;20209;-77
2022/01/24 06:47:38;;;;;;;3.33;1.87;;;;;;;;;;5056125;28;20614;-77
2022/01/24 06:50:05;;;;;;;2.60;1.83;;;;;;;;;;5058579;28;20198;-77
2022/01/24 06:52:33;;;;;;;4.00;1.80;;;;;;;;;;5055935;28;20224;-77
2022/01/24 06:55:00;;;;;;;2.43;1.77;;;;;;;;;;5057241;28;20198;-77
2022/01/24 06:57:27;;;;;;;3.73;2.20;;;;;;;;;;5058619;28;20763;-76
2022/01/24 06:59:54;;;;;;;9.97;4.03;;;;;;;;;;5058890;28;20286;-77
2022/01/24 07:02:23;;;;;;;2.50;1.67;;;;;;;;;;5057904;28;20547;-77
2022/01/24 07:04:50;;;;;;;4.47;2.30;;;;;;;;;;5057843;28;20230;-77
2022/01/24 07:07:17;;;;;;;2.23;1.70;;;;;;;;;;5055921;28;20218;-77
2022/01/24 07:09:44;;;;;;;3.60;2.40;;;;;;;;;;5059608;28;20210;-77
2022/01/24 07:12:12;;;;;;;3.90;2.63;;;;;;;;;;5056624;28;20215;-77
2022/01/24 07:14:40;;;;;;;2.60;1.80;;;;;;;;;;5059645;28;20234;-76
2022/01/24 07:17:15;;;;;;;2.90;2.03;;;;;;;;;;5060253;28;20721;-77
2022/01/24 07:19:44;;;;;;;4.57;2.47;;;;;;;;;;5059793;28;20206;-77
2022/01/24 07:22:11;;;;;;;3.70;2.23;;;;;;;;;;5058748;28;20264;-76
2022/01/24 07:24:39;;;;;;;3.40;2.00;;;;;;;;;;5057924;28;20313;-77
2022/01/24 07:27:06;;;;;;;6.80;3.17;;;;;;;;;;5059833;28;20213;-77
2022/01/24 07:29:33;;;;;;;2.90;2.03;;;;;;;;;;5057437;28;20204;-76
2022/01/24 07:32:01;;;;;;;4.80;2.50;;;;;;;;;;5059218;28;20206;-77
2022/01/24 07:34:29;;;;;;;2.20;1.77;;;;;;;;;;5054423;28;20693;-77
2022/01/24 07:36:57;;;;;;;3.43;1.90;;;;;;;;;;5056130;28;20776;-76
2022/01/24 07:39:25;;;;;;;2.10;1.60;;;;;;;;;;5062582;28;20199;-76
2022/01/24 07:41:52;;;;;;;4.03;1.90;;;;;;;;;;5069885;28;20220;-77
2022/01/24 07:44:21;;;;;;;2.57;1.90;;;;;;;;;;5063341;28;20602;-77
2022/01/24 07:46:48;;;;;;;2.10;1.70;;;;;;;;;;5064465;28;20665;-75
2022/01/24 07:49:15;;;;;;;3.20;1.80;;;;;;;;;;5060043;28;20202;-76
2022/01/24 07:51:43;;;;;;;2.13;1.80;;;;;;;;;;5068668;28;20221;-77
2022/01/24 07:54:12;;;;;;;3.87;1.90;;;;;;;;;;5071615;28;20591;-77
2022/01/24 07:56:39;;;;;;;3.43;2.30;;;;;;;;;;5065486;28;20259;-77
2022/01/24 07:59:06;;;;;;;3.90;1.90;;;;;;;;;;5065693;28;20194;-76
2022/01/24 08:01:33;;;;;;;3.00;2.07;;;;;;;;;;5060423;28;20209;-77
2022/01/24 08:04:00;;;;;;;3.83;1.83;;;;;;;;;;5065934;28;20233;-76
2022/01/24 08:06:28;;;;;;;3.37;1.97;;;;;;;;;;5064505;28;20203;-76
2022/01/24 08:08:55;;;;;;;5.73;2.17;;;;;;;;;;5060992;28;20306;-76
2022/01/24 08:11:23;;;;;;;5.50;3.33;;;;;;;;;;5066427;28;20293;-77
2022/01/24 08:13:51;;;;;;;3.17;2.13;;;;;;;;;;5065729;28;20241;-77
2022/01/24 08:16:18;;;;;;;4.27;2.70;;;;;;;;;;5069925;28;20252;-77
2022/01/24 08:18:50;;;;;;;4.63;2.67;;;;;;;;;;5064582;28;20241;-76
2022/01/24 08:21:17;;;;;;;6.97;3.20;;;;;;;;;;5065427;28;20207;-76
2022/01/24 08:23:46;;;;;;;6.03;3.60;;;;;;;;;;5065363;28;20305;-76
2022/01/24 08:26:13;;;;;;;3.13;2.17;;;;;;;;;;5068480;28;20217;-76
2022/01/24 08:28:41;;;;;;;2.03;1.60;;;;;;;;;;5070256;28;20206;-77
2022/01/24 08:31:09;;;;;;;3.33;1.70;;;;;;;;;;5068192;28;20289;-76
2022/01/24 08:33:36;;;;;;;2.10;1.80;;;;;;;;;;5068854;28;20230;-76
2022/01/24 08:36:04;;;;;;;1.63;1.50;;;;;;;;;;5061361;28;20289;-76
2022/01/24 08:38:34;;;;;;;4.47;1.83;;;;;;;;;;5065038;28;20217;-77
2022/01/24 08:41:07;;;;;;;4.67;1.63;;;;;;;;;;5065327;28;20206;-76
2022/01/24 08:43:51;;;;;;;2.00;1.60;;;;;;;;;;5065623;28;20728;-77
2022/01/24 08:46:20;;;;;;;3.40;1.83;;;;;;;;;;5063591;28;20260;-76
2022/01/24 08:48:47;;;;;;;2.80;2.00;;;;;;;;;;5061839;28;20195;-76
2022/01/24 08:51:14;;;;;;;4.87;2.10;;;;;;;;;;5064704;28;20214;-76
2022/01/24 08:53:42;;;;;;;2.60;2.00;;;;;;;;;;5063751;28;20309;-76
2022/01/24 08:56:11;;;;;;;2.93;2.30;;;;;;;;;;5066947;28;20229;-77
2022/01/24 08:58:38;;;;;;;2.80;2.07;;;;;;;;;;5071973;28;20214;-76
2022/01/24 09:01:06;;;;;;;1.93;1.37;;;;;;;;;;5072568;28;20293;-77
2022/01/24 09:03:39;;;;;;;2.67;1.70;;;;;;;;;;5063617;28;20222;-77
2022/01/24 09:06:06;;;;;;;2.17;1.60;;;;;;;;;;5061687;28;20194;-77
2022/01/24 09:08:34;;;;;;;3.57;2.30;;;;;;;;;;5062841;28;20235;-76
2022/01/24 09:11:01;;;;;;;2.80;1.87;;;;;;;;;;5064690;28;20256;-77
2022/01/24 09:13:30;;;;;;;2.50;2.03;;;;;;;;;;5062303;28;20296;-77
2022/01/24 09:15:57;;;;;;;2.50;1.90;;;;;;;;;;5062447;28;20256;-77
2022/01/24 09:18:24;;;;;;;4.53;2.60;;;;;;;;;;5056302;28;20203;-77
2022/01/24 09:20:53;;;;;;;3.07;1.90;;;;;;;;;;5063148;28;20207;-77
2022/01/24 09:23:22;;;;;;;3.47;1.80;;;;;;;;;;5064817;28;20700;-77
2022/01/24 09:25:49;;;;;;;3.13;1.80;;;;;;;;;;5067319;28;20225;-76
2022/01/24 09:28:16;;;;;;;3.50;2.23;;;;;;;;;;5060854;28;20290;-77
2022/01/24 09:30:44;;;;;;;1.70;1.40;;;;;;;;;;5061819;28;21603;-77
2022/01/24 09:33:13;;;;;;;2.43;1.73;;;;;;;;;;5065168;28;20232;-77
2022/01/24 09:35:40;;;;;;;2.27;1.67;;;;;;;;;;5064412;28;20219;-77
2022/01/24 09:38:09;;;;;;;10.73;2.00;;;;;;;;;;5059108;28;20206;-77
2022/01/24 09:40:36;;;;;;;2.43;1.80;;;;;;;;;;5062307;28;20260;-76
2022/01/24 09:43:03;;;;;;;1.97;1.50;;;;;;;;;;5062534;28;20280;-77
2022/01/24 09:45:30;;;;;;;3.83;1.67;;;;;;;;;;5057623;28;20309;-76
2022/01/24 09:47:59;;;;;;;3.83;2.30;;;;;;;;;;5060150;28;20202;-76
2022/01/24 09:50:26;;;;;;;5.97;3.17;;;;;;;;;;5022654;28;20241;-75
2022/01/24 09:52:53;;;;;;;4.47;2.30;;;;;;;;;;5086678;28;20222;-76
2022/01/24 09:55:23;;;;;;;5.90;3.53;;;;;;;;;;5081219;28;20671;-76
2022/01/24 09:57:50;;;;;;;3.20;2.30;;;;;;;;;;5077335;28;20209;-77
2022/01/24 10:00:18;;;;;;;2.73;1.93;;;;;;;;;;5086334;28;20218;-77
2022/01/24 10:02:46;;;;;;;2.83;2.10;;;;;;;;;;5087320;28;20304;-76
2022/01/24 10:05:15;;;;;;;3.27;1.83;;;;;;;;;;5087387;28;20314;-76
2022/01/24 10:07:42;;;;;;;3.00;2.07;;;;;;;;;;5081084;28;20585;-77
2022/01/24 10:10:10;;;;;;;3.73;2.23;;;;;;;;;;5083845;28;20206;-77
2022/01/24 10:18:04;;;;;;;3.40;2.20;;;;;;;;;;5078987;28;20335;-76
2022/01/24 10:20:33;;;;;;;2.60;1.90;;;;;;;;;;5084025;28;20665;-77
2022/01/24 10:23:01;;;;;;;4.60;1.90;;;;;;;;;;5079952;28;20223;-76
2022/01/24 10:25:28;;;;;;;6.00;2.30;;;;;;;;;;5080091;28;20684;-76
2022/01/24 10:28:03;;;;;;;3.37;2.23;;;;;;;;;;5077318;28;20201;-76
2022/01/24 10:30:32;;;;;;;4.30;2.50;;;;;;;;;;5077863;28;20205;-76
2022/01/24 10:33:03;;;;;;;13.40;2.30;;;;;;;;;;5082176;28;20252;-76
2022/01/24 10:35:33;;;;;;;5.13;2.03;;;;;;;;;;5072367;28;20197;-76
2022/01/24 10:38:22;;;;;;;3.63;2.17;;;;;;;;;;5080513;28;20220;-76
2022/01/24 10:40:52;;;;;;;4.33;2.53;;;;;;;;;;5080932;28;20221;-77
2022/01/24 10:43:22;;;;;;;4.83;1.70;;;;;;;;;;5080459;28;20218;-76
2022/01/24 10:45:50;;;;;;;2.33;1.87;;;;;;;;;;5078143;28;20304;-76
2022/01/24 10:48:21;;;;;;;7.00;1.73;;;;;;;;;;5076344;28;20204;-77
2022/01/24 10:50:49;;;;;;;4.53;2.00;;;;;;;;;;5075637;28;20214;-77
2022/01/24 10:53:17;;;;;;;2.73;1.70;;;;;;;;;;5079174;28;20240;-76
2022/01/24 10:55:45;;;;;;;2.00;1.67;;;;;;;;;;5073055;28;20212;-75
2022/01/24 10:58:17;;;;;;;2.33;1.63;;;;;;;;;;5081639;28;20649;-76
2022/01/24 11:00:47;;;;;;;2.40;1.83;;;;;;;;;;5079299;28;20202;-76
2022/01/24 11:03:17;;;;;;;3.63;1.90;;;;;;;;;;5075186;28;20629;-77
2022/01/24 11:05:44;;;;;;;8.17;2.47;;;;;;;;;;5076717;28;21064;-76
2022/01/24 11:08:11;;;;;;;2.90;2.00;;;;;;;;;;5077663;28;20228;-76
2022/01/24 11:10:40;;;;;;;3.03;2.20;;;;;;;;;;5077683;28;20194;-76
2022/01/24 11:13:07;;;;;;;2.90;1.73;;;;;;;;;;5081576;28;20733;-76
2022/01/24 11:15:35;;;;;;;3.73;1.80;;;;;;;;;;5080563;28;20672;-76
2022/01/24 11:18:05;;;;;;;3.80;2.00;;;;;;;;;;5084241;28;20215;-76
2022/01/24 11:20:34;;;;;;;3.17;2.20;;;;;;;;;;5082613;28;20282;-77
2022/01/24 11:23:02;;;;;;;2.60;1.50;;;;;;;;;;5080115;28;20305;-76
2022/01/24 11:25:31;;;;;;;1.97;1.53;;;;;;;;;;5080960;28;20681;-76
2022/01/24 11:27:58;;;;;;;3.20;1.67;;;;;;;;;;5080895;28;20665;-76
2022/01/24 11:30:29;;;;;;;3.33;2.10;;;;;;;;;;5086310;28;20208;-76
2022/01/24 11:32:57;;;;;;;2.97;1.77;;;;;;;;;;5085774;28;20228;-76
2022/01/24 11:35:34;;;;;;;3.20;1.80;;;;;;;;;;5086769;28;20198;-77
2022/01/24 11:38:01;;;;;;;2.90;1.70;;;;;;;;;;5083212;28;20209;-76
2022/01/24 11:40:29;;;;;;;4.07;2.20;;;;;;;;;;5082756;28;20297;-75
2022/01/24 11:42:57;;;;;;;1.97;1.60;;;;;;;;;;5082239;28;20309;-76
2022/01/24 11:45:42;;;;;;;4.07;2.10;;;;;;;;;;5085950;28;20282;-76
2022/01/24 11:48:17;;;;;;;3.57;1.93;;;;;;;;;;5084975;28;20208;-77
2022/01/24 11:50:55;;;;;;;3.03;1.70;;;;;;;;;;5082968;28;20212;-76
2022/01/24 11:53:23;;;;;;;2.37;1.67;;;;;;;;;;5084291;28;20316;-76
2022/01/24 11:55:50;;;;;;;5.60;2.50;;;;;;;;;;5083126;28;20205;-76
2022/01/24 11:58:23;;;;;;;3.50;2.10;;;;;;;;;;5086156;28;20297;-77
2022/01/24 12:00:52;;;;;;;4.53;2.20;;;;;;;;;;5083525;28;20206;-76
2022/01/24 12:03:23;;;;;;;3.67;2.30;;;;;;;;;;5086433;28;20226;-76
2022/01/24 12:05:53;;;;;;;6.60;2.67;;;;;;;;;;5086924;28;20245;-76
2022/01/24 12:08:31;;;;;;;3.07;2.10;;;;;;;;;;5081024;28;20212;-76
2022/01/24 12:11:11;;;;;;;6.37;3.13;;;;;;;;;;5080356;28;20205;-76
2022/01/24 12:13:43;;;;;;;8.00;3.70;;;;;;;;;;5082488;28;20334;-75
2022/01/24 12:16:11;;;;;;;8.43;2.90;;;;;;;;;;5088368;28;20202;-76
2022/01/24 12:19:00;;;;;;;5.87;3.13;;;;;;;;;;5083396;28;20209;-76
2022/01/24 12:21:29;;;;;;;6.23;2.77;;;;;;;;;;5076079;28;20774;-76
2022/01/24 12:23:57;;;;;;;6.47;1.90;;;;;;;;;;5083707;28;20582;-76
2022/01/24 12:26:26;;;;;;;4.93;1.53;;;;;;;;;;5085403;28;20714;-76
2022/01/24 12:28:56;;;;;;;3.33;1.80;;;;;;;;;;5086095;28;20673;-76
2022/01/24 12:31:25;;;;;;;2.53;1.63;;;;;;;;;;5083568;28;20197;-76
2022/01/24 12:34:00;;;;;;;2.67;1.67;;;;;;;;;;5086202;28;20287;-76
2022/01/24 12:36:48;;;;;;;4.73;1.90;;;;;;;;;;5087151;28;20212;-76
2022/01/24 12:39:18;;;;;;;4.17;1.93;;;;;;;;;;5082936;28;20553;-77
2022/01/24 12:41:46;;;;;;;2.90;1.87;;;;;;;;;;5088226;28;20213;-76
2022/01/24 12:46:18;;;;;;;3.50;1.60;;;;;;;;;;5084973;28;20593;-76
2022/01/24 12:47:00;;;;;;;3.60;2.20;;;;;;;;;;5084539;28;20213;-76
2022/01/24 12:49:28;;;;;;;2.80;1.83;;;;;;;;;;5087116;28;20641;-76
2022/01/24 12:51:56;;;;;;;3.57;1.77;;;;;;;;;;5086345;28;20244;-76
2022/01/24 12:54:31;;;;;;;5.63;2.40;;;;;;;;;;5085664;28;20725;-75
2022/01/24 12:57:00;;;;;;;3.97;2.00;;;;;;;;;;5081039;28;20228;-76
2022/01/24 12:59:27;;;;;;;5.67;2.23;;;;;;;;;;5087818;28;20202;-75
2022/01/24 13:01:56;;;;;;;5.57;2.03;;;;;;;;;;5085057;28;20324;-76
2022/01/24 13:04:32;;;;;;;3.70;2.13;;;;;;;;;;5083709;28;20224;-76
2022/01/24 13:06:59;;;;;;;5.90;2.20;;;;;;;;;;5086248;28;20222;-75
2022/01/24 13:09:26;;;;;;;5.97;2.03;;;;;;;;;;5085178;28;20288;-76
2022/01/24 13:11:56;;;;;;;3.80;2.07;;;;;;;;;;5081631;28;20679;-77
2022/01/24 13:14:28;;;;;;;3.37;1.83;;;;;;;;;;5087713;28;20225;-77
2022/01/24 13:22:34;;;;;;;3.50;2.03;;;;;;;;;;5083721;28;20231;-76
2022/01/24 13:25:09;;;;;;;4.10;2.03;;;;;;;;;;5080681;28;20212;-76
2022/01/24 13:27:39;;;;;;;3.90;2.00;;;;;;;;;;5088436;28;20223;-76
2022/01/24 13:30:07;;;;;;;5.77;2.40;;;;;;;;;;5082543;28;20668;-76
2022/01/24 13:32:46;;;;;;;7.07;3.13;;;;;;;;;;5077831;28;20213;-76
2022/01/24 13:35:14;;;;;;;4.83;2.40;;;;;;;;;;5080741;28;20204;-76
2022/01/24 13:37:41;;;;;;;3.70;2.37;;;;;;;;;;5082542;28;20206;-76
2022/01/24 13:40:09;;;;;;;3.87;2.43;;;;;;;;;;5080822;28;20206;-77
2022/01/24 13:42:37;;;;;;;4.60;2.87;;;;;;;;;;5078655;28;20262;-76
2022/01/24 13:45:05;;;;;;;4.10;2.13;;;;;;;;;;5084537;28;20198;-76
2022/01/24 13:47:33;;;;;;;5.17;2.30;;;;;;;;;;5087201;28;20296;-75
2022/01/24 13:50:00;;;;;;;4.97;2.00;;;;;;;;;;5081063;28;20727;-76
2022/01/24 13:52:31;;;;;;;3.70;2.23;;;;;;;;;;5081129;28;20674;-76
2022/01/24 13:55:13;;;;;;;4.93;2.43;;;;;;;;;;5079760;28;20280;-76
2022/01/24 13:57:46;;;;;;;7.27;2.67;;;;;;;;;;5080210;28;20665;-76
2022/01/24 14:00:16;;;;;;;5.30;2.60;;;;;;;;;;5077135;28;20203;-76
2022/01/24 14:02:44;;;;;;;5.03;2.97;;;;;;;;;;5081221;28;20221;-76
2022/01/24 14:05:11;;;;;;;5.73;2.70;;;;;;;;;;5080828;28;20251;-75
2022/01/24 14:07:41;;;;;;;5.50;3.33;;;;;;;;;;5086399;28;20288;-76
2022/01/24 14:10:10;;;;;;;10.70;3.03;;;;;;;;;;5080576;28;20566;-76
2022/01/24 14:12:48;;;;;;;5.10;3.07;;;;;;;;;;5081785;28;20622;-75
2022/01/24 14:15:24;;;;;;;8.07;3.57;;;;;;;;;;5077160;28;20213;-75
2022/01/24 14:20:45;;;;;;;6.53;3.00;;;;;;;;;;5083005;28;20335;-76
2022/01/24 14:23:21;;;;;;;8.67;3.67;;;;;;;;;;5078780;28;20257;-75
2022/01/24 14:25:48;;;;;;;8.37;3.50;;;;;;;;;;5082906;28;20257;-76
2022/01/24 14:28:15;;;;;;;4.50;2.50;;;;;;;;;;5082338;28;20290;-76
2022/01/24 14:30:44;;;;;;;4.53;2.90;;;;;;;;;;5082030;28;20280;-76
2022/01/24 14:33:12;;;;;;;7.47;3.20;;;;;;;;;;5082163;28;20554;-76
2022/01/24 14:35:43;;;;;;;8.97;3.83;;;;;;;;;;5081953;28;20639;-76
2022/01/24 14:38:10;;;;;;;5.10;3.10;;;;;;;;;;5081444;28;20672;-75
2022/01/24 14:40:50;;;;;;;9.63;3.33;;;;;;;;;;5080184;28;20233;-76
2022/01/24 14:46:06;;;;;;;8.63;3.83;;;;;;;;;;5079351;28;20271;-75
2022/01/24 14:48:34;;;;;;;8.27;3.63;;;;;;;;;;5087394;28;20210;-76
2022/01/24 14:51:01;;;;;;;6.77;3.27;;;;;;;;;;5090299;28;20304;-76
2022/01/24 14:53:29;;;;;;;8.03;3.80;;;;;;;;;;5085902;28;20317;-75
2022/01/24 14:55:58;;;;;;;6.33;3.20;;;;;;;;;;5083576;28;20237;-76
2022/01/24 14:58:25;;;;;;;7.17;3.57;;;;;;;;;;5084239;28;20228;-76
2022/01/24 15:00:52;;;;;;;8.77;3.80;;;;;;;;;;5084626;28;20198;-76
2022/01/24 15:03:21;;;;;;;5.73;3.43;;;;;;;;;;5079141;28;20222;-76
2022/01/24 15:05:48;;;;;;;7.20;3.80;;;;;;;;;;5082587;28;20264;-76
2022/01/24 15:08:16;;;;;;;5.23;2.97;;;;;;;;;;5080387;28;20572;-76
2022/01/24 15:10:43;;;;;;;5.97;3.10;;;;;;;;;;5081920;28;20212;-76
2022/01/24 15:13:11;;;;;;;7.07;3.33;;;;;;;;;;5083243;28;20709;-76
2022/01/24 15:15:48;;;;;;;6.00;3.27;;;;;;;;;;5079689;28;20202;-75
2022/01/24 15:24:25;;;;;;;8.10;3.43;;;;;;;;;;5083712;28;20895;-76
2022/01/24 15:26:53;;;;;;;6.20;3.10;;;;;;;;;;5082521;28;20344;-76
2022/01/24 15:29:20;;;;;;;6.67;3.43;;;;;;;;;;5080584;28;20302;-76
2022/01/24 15:31:47;;;;;;;9.03;3.13;;;;;;;;;;5082800;28;20293;-76
2022/01/24 15:34:15;;;;;;;4.97;2.67;;;;;;;;;;5085897;28;20224;-75
2022/01/24 15:36:44;;;;;;;5.53;3.20;;;;;;;;;;5087840;28;20238;-76
2022/01/24 15:39:11;;;;;;;5.50;3.20;;;;;;;;;;5083219;28;20202;-76
2022/01/24 15:41:47;;;;;;;5.60;3.13;;;;;;;;;;5092113;28;20245;-76
2022/01/24 15:49:59;;;;;;;7.07;3.57;;;;;;;;;;5063862;28;20202;-76
2022/01/24 15:52:27;;;;;;;7.90;3.67;;;;;;;;;;5072023;28;20216;-77
2022/01/24 15:54:55;;;;;;;5.73;3.20;;;;;;;;;;5080142;28;20204;-75
2022/01/24 15:57:41;;;;;;;5.73;3.30;;;;;;;;;;5087317;28;20190;-76
2022/01/24 16:00:10;;;;;;;7.80;3.47;;;;;;;;;;5087311;28;20285;-77
2022/01/24 16:02:37;;;;;;;6.13;2.97;;;;;;;;;;5082514;28;20208;-75
2022/01/24 16:05:04;;;;;;;6.10;3.07;;;;;;;;;;5082876;28;20200;-76
2022/01/24 16:07:36;;;;;;;5.67;3.10;;;;;;;;;;5086299;28;21199;-76
2022/01/24 16:10:03;;;;;;;6.37;3.27;;;;;;;;;;5079963;28;20605;-76
2022/01/24 16:12:30;;;;;;;11.43;4.30;;;;;;;;;;5084312;28;20553;-76
2022/01/24 16:14:58;;;;;;;7.20;3.53;;;;;;;;;;5084599;28;20292;-76
2022/01/24 16:17:25;;;;;;;9.37;3.30;;;;;;;;;;5081366;28;20198;-76
2022/01/24 16:19:55;;;;;;;5.17;3.20;;;;;;;;;;5077195;28;20233;-76
2022/01/24 16:22:44;;;;;;;6.73;3.23;;;;;;;;;;5084602;28;20202;-76
2022/01/24 16:25:33;;;;;;;8.37;3.10;;;;;;;;;;5077844;28;20284;-76
2022/01/24 16:28:01;;;;;;;7.00;3.43;;;;;;;;;;5072843;28;20307;-74